createdAt,value
2022-10-01T00:01:14.250Z,100473.91
2022-10-01T00:03:42.940Z,100523.31
2022-10-01T00:06:14.089Z,100517.91
2022-10-01T00:08:43.442Z,100502.28
2022-10-01T00:11:13.524Z,100464.31
2022-10-01T00:13:44.278Z,100507.19
2022-10-01T00:16:14.655Z,100495.81
2022-10-01T00:18:44.345Z,100485.03
2022-10-01T00:21:14.005Z,100498.53
2022-10-01T00:23:42.917Z,100461.25
2022-10-01T00:26:14.865Z,100470.16
2022-10-01T00:28:45.834Z,100464.31
2022-10-01T00:31:15.372Z,100475.34
2022-10-01T00:33:43.606Z,100476.94
2022-10-01T00:36:12.674Z,100490.53
2022-10-01T00:38:41.242Z,100478.06
2022-10-01T00:41:10.963Z,100476.72
2022-10-01T00:43:43.847Z,100446.59
2022-10-01T00:46:18.857Z,100450.00
2022-10-01T00:48:53.622Z,100449.91
2022-10-01T00:51:21.633Z,100463.50
2022-10-01T00:53:49.429Z,100443.69
2022-10-01T00:56:17.344Z,100448.50
2022-10-01T00:58:45.386Z,100445.00
2022-10-01T01:01:13.210Z,100444.69
2022-10-01T01:03:42.344Z,100439.72
2022-10-01T01:06:09.975Z,100445.22
2022-10-01T01:08:37.663Z,100439.00
2022-10-01T01:11:11.376Z,100442.03
2022-10-01T01:13:50.222Z,100427.03
2022-10-01T01:16:25.434Z,100428.19
2022-10-01T01:19:03.598Z,100424.25
2022-10-01T01:21:33.722Z,100407.75
2022-10-01T01:24:30.836Z,100411.34
2022-10-01T01:27:19.969Z,100424.25
2022-10-01T01:29:54.288Z,100359.59
2022-10-01T01:32:28.534Z,100416.47
2022-10-01T01:35:02.650Z,100404.59
2022-10-01T01:37:39.068Z,100407.38
2022-10-01T01:40:12.303Z,100401.41
2022-10-01T01:42:44.629Z,100395.47
2022-10-01T01:45:18.589Z,100390.03
2022-10-01T01:47:47.247Z,100383.13
2022-10-01T01:50:18.741Z,100383.00
2022-10-01T01:52:46.527Z,100360.13
2022-10-01T01:55:14.275Z,100363.66
2022-10-01T01:57:44.674Z,100353.72
2022-10-01T02:00:14.862Z,100347.16
2022-10-01T02:02:48.121Z,100336.16
2022-10-01T02:05:19.370Z,100338.31
2022-10-01T02:08:12.679Z,100325.47
2022-10-01T02:11:00.598Z,100333.47
2022-10-01T02:13:41.123Z,100319.28
2022-10-01T02:16:19.146Z,100321.38
2022-10-01T02:18:51.459Z,100316.63
2022-10-01T02:21:22.524Z,100307.38
2022-10-01T02:23:53.662Z,100307.06
2022-10-01T02:26:24.235Z,100307.50
2022-10-01T02:28:55.805Z,100311.09
2022-10-01T02:31:25.193Z,100294.78
2022-10-01T02:33:55.888Z,100288.13
2022-10-01T02:36:26.552Z,100290.41
2022-10-01T02:38:56.541Z,100288.28
2022-10-01T02:41:28.307Z,100284.00
2022-10-01T02:43:59.378Z,100283.00
2022-10-01T02:46:33.039Z,100275.63
2022-10-01T02:49:02.880Z,100282.06
2022-10-01T02:51:39.319Z,100282.19
2022-10-01T02:54:12.196Z,100276.88
2022-10-01T02:56:58.931Z,100275.69
2022-10-01T02:59:26.548Z,100272.38
2022-10-01T03:01:55.801Z,100253.97
2022-10-01T03:04:23.505Z,100256.31
2022-10-01T03:06:51.163Z,100254.13
2022-10-01T03:09:18.846Z,100247.16
2022-10-01T03:11:47.372Z,100249.38
2022-10-01T03:14:14.986Z,100248.75
2022-10-01T03:16:42.626Z,100240.81
2022-10-01T03:19:11.673Z,100243.19
2022-10-01T03:21:39.357Z,100232.72
2022-10-01T03:24:07.536Z,100241.94
2022-10-01T03:26:36.394Z,100252.56
2022-10-01T03:29:04.318Z,100237.56
2022-10-01T03:31:33.234Z,100241.81
2022-10-01T03:34:01.396Z,100240.53
2022-10-01T03:36:31.287Z,100240.53
2022-10-01T03:38:58.933Z,100238.34
2022-10-01T03:41:26.950Z,100240.63
2022-10-01T03:43:59.650Z,100237.59
2022-10-01T03:46:28.119Z,100240.53
2022-10-01T03:48:57.282Z,100240.28
2022-10-01T03:51:25.179Z,100241.66
2022-10-01T03:53:54.283Z,100222.47
2022-10-01T03:56:21.937Z,100231.91
2022-10-01T03:58:49.715Z,100228.63
2022-10-01T04:01:17.445Z,100183.16
2022-10-01T04:03:45.239Z,100206.47
2022-10-01T04:06:13.355Z,100221.31
2022-10-01T04:08:41.232Z,100210.63
2022-10-01T04:11:10.481Z,100216.47
2022-10-01T04:13:38.430Z,100206.84
2022-10-01T04:16:07.113Z,100204.66
2022-10-01T04:18:35.480Z,100147.22
2022-10-01T04:21:03.535Z,100174.69
2022-10-01T04:23:31.649Z,100175.88
2022-10-01T04:26:01.022Z,100172.19
2022-10-01T04:28:30.821Z,100157.75
2022-10-01T04:31:12.538Z,100152.94
2022-10-01T04:33:40.196Z,100151.31
2022-10-01T04:36:07.996Z,100130.53
2022-10-01T04:38:35.767Z,100098.28
2022-10-01T04:41:03.423Z,100123.72
2022-10-01T04:43:32.442Z,100125.41
2022-10-01T04:46:00.133Z,100107.44
2022-10-01T04:48:27.919Z,100101.63
2022-10-01T04:50:55.587Z,100107.75
2022-10-01T04:53:23.258Z,100104.84
2022-10-01T04:55:50.972Z,100099.81
2022-10-01T04:58:18.936Z,100088.16
2022-10-01T05:00:49.494Z,100029.59
2022-10-01T05:03:17.304Z,100075.41
2022-10-01T05:05:45.052Z,100066.72
2022-10-01T05:08:12.787Z,100069.25
2022-10-01T05:10:40.576Z,100054.66
2022-10-01T05:13:08.403Z,100051.34
2022-10-01T05:15:36.842Z,100062.34
2022-10-01T05:18:05.956Z,100035.97
2022-10-01T05:20:34.624Z,100050.34
2022-10-01T05:23:02.331Z,100044.53
2022-10-01T05:25:30.009Z,100033.50
2022-10-01T05:28:05.744Z,100045.13
2022-10-01T05:30:34.945Z,100031.53
2022-10-01T05:33:05.541Z,99997.72
2022-10-01T05:35:33.481Z,100019.03
2022-10-01T05:38:02.704Z,100030.91
2022-10-01T05:40:31.167Z,100034.56
2022-10-01T05:42:59.949Z,100002.41
2022-10-01T05:45:28.829Z,100024.44
2022-10-01T05:48:01.427Z,100028.53
2022-10-01T05:50:32.258Z,100023.25
2022-10-01T05:53:00.556Z,100029.25
2022-10-01T05:55:31.747Z,100020.75
2022-10-01T05:58:01.496Z,100028.63
2022-10-01T06:00:30.479Z,100025.38
2022-10-01T06:02:58.794Z,100025.03
2022-10-01T06:05:27.638Z,100003.97
2022-10-01T06:07:57.147Z,100011.44
2022-10-01T06:10:26.283Z,100006.41
2022-10-01T06:13:00.305Z,100004.66
2022-10-01T06:15:28.457Z,100010.44
2022-10-01T06:17:56.190Z,99997.44
2022-10-01T06:20:24.094Z,99983.91
2022-10-01T06:22:57.126Z,99986.69
2022-10-01T06:25:25.399Z,99984.00
2022-10-01T06:27:57.941Z,99983.63
2022-10-01T06:30:27.543Z,99979.31
2022-10-01T06:33:00.109Z,99963.44
2022-10-01T06:35:27.841Z,99972.69
2022-10-01T06:37:56.900Z,99960.38
2022-10-01T06:40:24.672Z,99951.56
2022-10-01T06:42:56.613Z,99868.97
2022-10-01T06:45:24.703Z,99951.81
2022-10-01T06:47:55.426Z,99951.06
2022-10-01T06:50:23.293Z,99936.00
2022-10-01T06:52:50.327Z,99941.53
2022-10-01T06:55:20.247Z,99946.78
2022-10-01T06:57:50.251Z,99935.28
2022-10-01T07:00:18.112Z,99940.16
2022-10-01T07:02:45.821Z,99933.69
2022-10-01T07:05:14.833Z,99939.44
2022-10-01T07:07:43.279Z,99939.16
2022-10-01T07:10:12.562Z,99934.78
2022-10-01T07:12:41.752Z,99939.03
2022-10-01T07:15:10.552Z,99929.88
2022-10-01T07:17:44.922Z,99927.56
2022-10-01T07:20:13.025Z,99936.56
2022-10-01T07:22:40.743Z,99926.66
2022-10-01T07:25:09.356Z,99926.75
2022-10-01T07:27:37.517Z,99929.59
2022-10-01T07:30:08.262Z,99906.22
2022-10-01T07:32:36.258Z,99911.16
2022-10-01T07:35:05.102Z,99909.66
2022-10-01T07:37:32.927Z,99900.38
2022-10-01T07:40:05.254Z,99905.22
2022-10-01T07:42:35.238Z,99910.91
2022-10-01T07:45:04.285Z,99900.97
2022-10-01T07:47:33.434Z,99900.16
2022-10-01T07:50:01.283Z,99890.38
2022-10-01T07:52:29.010Z,99888.94
2022-10-01T07:54:56.649Z,99892.84
2022-10-01T07:57:24.341Z,99878.09
2022-10-01T07:59:55.701Z,99888.34
2022-10-01T08:02:24.019Z,99882.81
2022-10-01T08:05:12.874Z,99846.75
2022-10-01T08:07:40.558Z,99870.31
2022-10-01T08:10:08.791Z,99870.25
2022-10-01T08:12:36.452Z,99860.19
2022-10-01T08:15:06.452Z,99859.25
2022-10-01T08:17:34.867Z,99856.38
2022-10-01T08:20:05.110Z,99875.53
2022-10-01T08:22:32.954Z,99866.16
2022-10-01T08:25:00.828Z,99869.88
2022-10-01T08:27:29.048Z,99873.28
2022-10-01T08:29:56.971Z,99865.25
2022-10-01T08:32:25.421Z,99879.34
2022-10-01T08:34:56.774Z,99873.19
2022-10-01T08:37:30.456Z,99843.34
2022-10-01T08:39:58.269Z,99878.09
2022-10-01T08:42:42.833Z,99870.84
2022-10-01T08:45:14.381Z,99862.53
2022-10-01T08:47:49.540Z,99854.63
2022-10-01T08:50:29.933Z,99876.69
2022-10-01T08:53:02.667Z,99872.13
2022-10-01T08:55:36.605Z,99877.00
2022-10-01T08:58:06.579Z,99874.00
2022-10-01T09:00:37.212Z,99859.16
2022-10-01T09:03:08.938Z,99862.19
2022-10-01T09:05:48.020Z,99869.44
2022-10-01T09:08:43.433Z,99874.56
2022-10-01T09:11:18.752Z,99884.81
2022-10-01T09:14:10.559Z,99891.75
2022-10-01T09:16:46.534Z,99886.44
2022-10-01T09:19:25.741Z,99898.94
2022-10-01T09:21:57.726Z,99899.09
2022-10-01T09:24:42.129Z,99887.81
2022-10-01T09:27:15.635Z,99894.84
2022-10-01T09:29:48.962Z,99898.03
2022-10-01T09:32:21.704Z,99895.00
2022-10-01T09:34:51.428Z,99899.38
2022-10-01T09:37:30.018Z,99896.03
2022-10-01T09:40:14.769Z,99874.91
2022-10-01T09:42:43.285Z,99912.59
2022-10-01T09:45:13.304Z,99913.53
2022-10-01T09:47:43.700Z,99914.94
2022-10-01T09:50:17.315Z,99903.69
2022-10-01T09:52:48.656Z,99920.34
2022-10-01T09:55:29.148Z,99919.25
2022-10-01T09:58:02.610Z,99913.50
2022-10-01T10:00:33.768Z,99904.38
2022-10-01T10:03:01.835Z,99904.84
2022-10-01T10:05:31.494Z,99914.00
2022-10-01T10:08:03.735Z,99922.06
2022-10-01T10:10:36.047Z,99921.53
2022-10-01T10:13:09.551Z,99871.47
2022-10-01T10:15:42.272Z,99919.09
2022-10-01T10:18:20.288Z,99931.66
2022-10-01T10:20:53.901Z,99921.38
2022-10-01T10:23:23.035Z,99932.88
2022-10-01T10:25:59.927Z,99935.53
2022-10-01T10:28:29.477Z,99945.25
2022-10-01T10:30:58.726Z,99950.50
2022-10-01T10:33:27.384Z,99944.59
2022-10-01T10:36:01.735Z,99943.97
2022-10-01T10:38:32.306Z,99944.13
2022-10-01T10:41:03.913Z,99945.03
2022-10-01T10:43:35.152Z,99928.84
2022-10-01T10:46:03.865Z,99955.06
2022-10-01T10:48:38.565Z,99951.56
2022-10-01T10:51:07.122Z,99958.69
2022-10-01T10:53:43.908Z,99965.88
2022-10-01T10:56:22.651Z,99967.94
2022-10-01T10:58:51.494Z,99956.56
2022-10-01T11:01:26.736Z,99963.22
2022-10-01T11:03:58.226Z,99959.47
2022-10-01T11:06:26.261Z,99954.44
2022-10-01T11:09:00.428Z,99962.13
2022-10-01T11:11:48.042Z,99963.19
2022-10-01T11:14:31.004Z,99962.22
2022-10-01T11:17:20.450Z,99954.88
2022-10-01T11:20:24.426Z,99951.25
2022-10-01T11:23:06.385Z,99949.47
2022-10-01T11:25:44.003Z,99952.66
2022-10-01T11:28:32.693Z,99946.44
2022-10-01T11:31:10.273Z,99957.00
2022-10-01T11:33:47.051Z,99958.88
2022-10-01T11:36:25.413Z,99954.56
2022-10-01T11:38:59.585Z,99959.44
2022-10-01T11:41:32.178Z,99950.50
2022-10-01T11:44:06.690Z,99926.16
2022-10-01T11:46:42.603Z,99969.31
2022-10-01T11:49:29.127Z,99952.31
2022-10-01T11:52:07.958Z,99958.31
2022-10-01T11:54:37.955Z,99946.97
2022-10-01T11:57:23.573Z,99946.44
2022-10-01T11:59:57.660Z,99946.31
2022-10-01T12:02:31.504Z,99947.16
2022-10-01T12:05:02.585Z,99936.13
2022-10-01T12:07:38.208Z,99940.56
2022-10-01T12:10:19.155Z,99938.47
2022-10-01T12:12:52.736Z,99938.78
2022-10-01T12:15:29.106Z,99937.19
2022-10-01T12:18:06.061Z,99933.50
2022-10-01T12:20:39.056Z,99940.97
2022-10-01T12:23:12.157Z,99928.38
2022-10-01T12:25:47.226Z,99900.81
2022-10-01T12:28:20.440Z,99930.16
2022-10-01T12:30:57.026Z,99930.09
2022-10-01T12:33:43.755Z,99938.13
2022-10-01T12:36:19.306Z,99926.59
2022-10-01T12:39:03.309Z,99938.47
2022-10-01T12:41:45.547Z,99942.22
2022-10-01T12:44:37.088Z,99941.47
2022-10-01T12:47:17.385Z,99949.34
2022-10-01T12:49:50.986Z,99946.31
2022-10-01T12:52:33.576Z,99948.75
2022-10-01T12:55:17.945Z,99938.53
2022-10-01T12:57:57.076Z,99940.84
2022-10-01T13:00:27.302Z,99944.50
2022-10-01T13:03:20.207Z,99944.59
2022-10-01T13:06:02.874Z,99958.34
2022-10-01T13:08:43.260Z,99953.72
2022-10-01T13:11:21.515Z,99963.53
2022-10-01T13:13:51.431Z,99964.91
2022-10-01T13:16:26.264Z,99977.16
2022-10-01T13:19:04.298Z,100022.84
2022-10-01T13:21:46.748Z,100064.31
2022-10-01T13:24:22.178Z,100082.88
2022-10-01T13:26:56.032Z,100065.88
2022-10-01T13:29:36.097Z,100069.00
2022-10-01T13:32:25.083Z,100080.56
2022-10-01T13:34:54.664Z,100086.81
2022-10-01T13:37:34.339Z,100042.09
2022-10-01T13:40:03.078Z,100071.31
2022-10-01T13:42:38.668Z,100086.31
2022-10-01T13:45:10.990Z,100083.00
2022-10-01T13:47:41.228Z,100088.63
2022-10-01T13:50:23.741Z,100087.38
2022-10-01T13:52:51.997Z,100086.75
2022-10-01T13:55:28.671Z,100086.06
2022-10-01T13:58:04.133Z,100093.25
2022-10-01T14:00:31.851Z,100090.78
2022-10-01T14:03:06.782Z,100095.31
2022-10-01T14:05:39.457Z,100081.34
2022-10-01T14:08:19.153Z,100081.81
2022-10-01T14:11:10.168Z,100051.69
2022-10-01T14:14:02.858Z,100090.09
2022-10-01T14:16:32.705Z,100086.75
2022-10-01T14:19:00.684Z,100097.00
2022-10-01T14:21:48.411Z,100069.13
2022-10-01T14:24:26.308Z,100096.75
2022-10-01T14:26:58.275Z,100063.38
2022-10-01T14:29:41.800Z,100110.56
2022-10-01T14:32:23.297Z,100100.47
2022-10-01T14:35:07.096Z,100118.66
2022-10-01T14:37:40.092Z,100110.81
2022-10-01T14:40:19.626Z,100105.34
2022-10-01T14:42:58.199Z,100122.44
2022-10-01T14:45:26.379Z,100121.03
2022-10-01T14:48:02.359Z,100132.16
2022-10-01T14:50:33.258Z,100127.00
2022-10-01T14:53:02.523Z,100129.22
2022-10-01T14:55:30.548Z,100140.31
2022-10-01T14:57:59.669Z,100097.00
2022-10-01T15:00:29.397Z,100152.28
2022-10-01T15:03:05.123Z,100142.94
2022-10-01T15:05:34.617Z,100151.78
2022-10-01T15:08:13.356Z,100148.50
2022-10-01T15:10:45.319Z,100142.84
2022-10-01T15:13:21.160Z,100156.34
2022-10-01T15:15:49.079Z,100156.94
2022-10-01T15:18:18.562Z,100161.63
2022-10-01T15:20:55.622Z,100165.47
2022-10-01T15:23:26.490Z,100172.03
2022-10-01T15:25:55.004Z,100174.22
2022-10-01T15:28:32.020Z,100178.19
2022-10-01T15:31:03.360Z,100179.38
2022-10-01T15:33:33.657Z,100184.66
2022-10-01T15:36:05.077Z,100192.53
2022-10-01T15:38:34.821Z,100193.72
2022-10-01T15:41:26.781Z,100180.03
2022-10-01T15:43:53.210Z,100200.25
2022-10-01T15:46:29.243Z,100153.81
2022-10-01T15:49:25.998Z,100162.41
2022-10-01T15:52:15.795Z,100196.31
2022-10-01T15:54:47.081Z,100194.53
2022-10-01T15:57:20.860Z,100198.59
2022-10-01T15:59:49.850Z,100205.41
2022-10-01T16:02:22.403Z,100212.34
2022-10-01T16:04:53.023Z,100214.78
2022-10-01T16:07:23.383Z,100221.03
2022-10-01T16:09:59.260Z,100215.41
2022-10-01T16:12:29.016Z,100225.06
2022-10-01T16:15:01.371Z,100240.31
2022-10-01T16:17:31.803Z,100246.88
2022-10-01T16:20:01.574Z,100256.84
2022-10-01T16:22:32.748Z,100257.63
2022-10-01T16:25:03.291Z,100273.38
2022-10-01T16:27:35.692Z,100267.47
2022-10-01T16:30:11.990Z,100280.41
2022-10-01T16:32:39.691Z,100293.19
2022-10-01T16:35:18.987Z,100285.91
2022-10-01T16:37:47.561Z,100269.56
2022-10-01T16:40:17.224Z,100284.56
2022-10-01T16:42:45.925Z,100294.69
2022-10-01T16:45:16.913Z,100292.31
2022-10-01T16:47:45.020Z,100299.84
2022-10-01T16:50:14.663Z,100295.25
2022-10-01T16:52:42.561Z,100297.06
2022-10-01T16:55:22.709Z,100318.28
2022-10-01T16:57:50.987Z,100313.97
2022-10-01T17:00:20.595Z,100320.66
2022-10-01T17:02:48.614Z,100320.25
2022-10-01T17:05:19.735Z,100326.47
2022-10-01T17:07:47.486Z,100329.84
2022-10-01T17:10:16.401Z,100323.56
2022-10-01T17:12:47.708Z,100328.19
2022-10-01T17:15:18.204Z,100342.28
2022-10-01T17:17:46.535Z,100350.34
2022-10-01T17:20:15.027Z,100353.59
2022-10-01T17:22:43.569Z,100357.09
2022-10-01T17:25:16.093Z,100356.31
2022-10-01T17:27:45.683Z,100353.94
2022-10-01T17:30:13.979Z,100369.94
2022-10-01T17:32:42.995Z,100371.28
2022-10-01T17:35:12.513Z,100382.72
2022-10-01T17:37:40.926Z,100381.78
2022-10-01T17:40:10.361Z,100392.75
2022-10-01T17:42:38.280Z,100410.13
2022-10-01T17:45:09.911Z,100397.56
2022-10-01T17:47:37.977Z,100413.16
2022-10-01T17:50:06.577Z,100435.31
2022-10-01T17:52:34.341Z,100440.47
2022-10-01T17:55:02.066Z,100455.91
2022-10-01T17:57:29.808Z,100460.16
2022-10-01T17:59:57.608Z,100463.66
2022-10-01T18:02:41.423Z,100467.84
2022-10-01T18:05:12.647Z,100460.19
2022-10-01T18:07:40.963Z,100484.06
2022-10-01T18:10:10.893Z,100483.25
2022-10-01T18:12:39.014Z,100479.19
2022-10-01T18:15:07.800Z,100481.44
2022-10-01T18:17:42.973Z,100484.09
2022-10-01T18:20:11.299Z,100478.94
2022-10-01T18:22:39.168Z,100484.06
2022-10-01T18:25:07.555Z,100486.88
2022-10-01T18:27:35.401Z,100487.00
2022-10-01T18:30:03.197Z,100487.34
2022-10-01T18:32:37.927Z,100499.78
2022-10-01T18:35:20.326Z,100493.38
2022-10-01T18:37:52.629Z,100491.63
2022-10-01T18:40:23.067Z,100505.91
2022-10-01T18:42:55.852Z,100500.56
2022-10-01T18:45:38.421Z,100520.50
2022-10-01T18:48:29.012Z,100511.00
2022-10-01T18:51:07.730Z,100531.41
2022-10-01T18:53:56.847Z,100525.19
2022-10-01T18:56:33.305Z,100534.03
2022-10-01T18:59:19.038Z,100544.38
2022-10-01T19:01:59.711Z,100541.56
2022-10-01T19:05:05.342Z,100556.34
2022-10-01T19:07:48.300Z,100554.47
2022-10-01T19:10:24.078Z,100567.09
2022-10-01T19:12:59.824Z,100549.81
2022-10-01T19:15:40.138Z,100529.03
2022-10-01T19:18:25.516Z,100582.84
2022-10-01T19:21:03.052Z,100588.69
2022-10-01T19:24:10.776Z,100581.31
2022-10-01T19:26:44.458Z,100588.66
2022-10-01T19:29:32.858Z,100590.50
2022-10-01T19:32:04.480Z,100591.94
2022-10-01T19:34:38.928Z,100605.66
2022-10-01T19:37:13.584Z,100604.94
2022-10-01T19:39:46.427Z,100596.31
2022-10-01T19:42:19.808Z,100607.59
2022-10-01T19:44:58.647Z,100600.66
2022-10-01T19:47:40.151Z,100610.25
2022-10-01T19:50:19.516Z,100612.56
2022-10-01T19:52:51.443Z,100612.91
2022-10-01T19:55:23.910Z,100623.66
2022-10-01T19:57:52.691Z,100629.97
2022-10-01T20:00:22.673Z,100580.19
2022-10-01T20:02:57.958Z,100629.69
2022-10-01T20:05:29.547Z,100628.75
2022-10-01T20:08:06.161Z,100638.41
2022-10-01T20:10:39.577Z,100641.75
2022-10-01T20:13:34.364Z,100645.59
2022-10-01T20:16:14.816Z,100650.41
2022-10-01T20:18:50.219Z,100656.47
2022-10-01T20:21:42.720Z,100662.97
2022-10-01T20:24:28.773Z,100658.31
2022-10-01T20:27:10.347Z,100615.72
2022-10-01T20:29:44.858Z,100669.03
2022-10-01T20:32:19.880Z,100668.00
2022-10-01T20:35:01.613Z,100673.63
2022-10-01T20:37:44.215Z,100684.75
2022-10-01T20:40:18.699Z,100621.03
2022-10-01T20:42:51.301Z,100684.56
2022-10-01T20:45:23.846Z,100682.69
2022-10-01T20:47:57.993Z,100689.09
2022-10-01T20:50:32.440Z,100696.09
2022-10-01T20:53:10.842Z,100705.44
2022-10-01T20:55:42.430Z,100688.44
2022-10-01T20:58:19.846Z,100690.28
2022-10-01T21:00:51.858Z,100703.00
2022-10-01T21:03:26.528Z,100691.69
2022-10-01T21:05:58.781Z,100694.72
2022-10-01T21:08:39.500Z,100701.81
2022-10-01T21:11:14.427Z,100654.41
2022-10-01T21:13:50.188Z,100715.41
2022-10-01T21:16:38.409Z,100716.19
2022-10-01T21:19:24.240Z,100724.19
2022-10-01T21:22:01.419Z,100729.72
2022-10-01T21:24:45.302Z,100741.16
2022-10-01T21:27:29.577Z,100745.88
2022-10-01T21:30:17.209Z,100749.31
2022-10-01T21:33:05.507Z,100756.94
2022-10-01T21:35:44.563Z,100761.88
2022-10-01T21:38:22.644Z,100762.03
2022-10-01T21:41:06.890Z,100760.28
2022-10-01T21:43:50.483Z,100770.53
2022-10-01T21:46:27.333Z,100760.06
2022-10-01T21:49:00.100Z,100764.78
2022-10-01T21:51:38.944Z,100781.03
2022-10-01T21:54:45.028Z,100785.94
2022-10-01T21:57:28.414Z,100781.31
2022-10-01T22:00:20.264Z,100791.53
2022-10-01T22:02:58.727Z,100796.53
2022-10-01T22:05:33.775Z,100796.91
2022-10-01T22:08:11.727Z,100784.47
2022-10-01T22:10:43.236Z,100752.53
2022-10-01T22:13:16.978Z,100787.97
2022-10-01T22:15:46.087Z,100804.88
2022-10-01T22:18:20.385Z,100802.22
2022-10-01T22:20:48.800Z,100810.44
2022-10-01T22:23:19.624Z,100822.19
2022-10-01T22:25:53.872Z,100831.78
2022-10-01T22:28:28.007Z,100832.81
2022-10-01T22:30:59.250Z,100836.44
2022-10-01T22:33:34.166Z,100839.97
2022-10-01T22:36:08.373Z,100832.63
2022-10-01T22:38:41.778Z,100834.06
2022-10-01T22:41:16.908Z,100830.72
2022-10-01T22:43:45.865Z,100834.41
2022-10-01T22:46:49.607Z,100841.53
2022-10-01T22:49:32.218Z,100843.00
2022-10-01T22:52:07.951Z,100838.31
2022-10-01T22:54:48.590Z,100834.53
2022-10-01T22:57:28.955Z,100820.88
2022-10-01T23:00:03.085Z,100832.19
2022-10-01T23:02:54.509Z,100846.31
2022-10-01T23:05:38.016Z,100852.06
2022-10-01T23:08:15.311Z,100844.72
2022-10-01T23:10:56.466Z,100824.78
2022-10-01T23:13:31.272Z,100841.75
2022-10-01T23:16:05.535Z,100840.03
2022-10-01T23:18:43.873Z,100836.91
2022-10-01T23:21:26.179Z,100847.06
2022-10-01T23:24:02.420Z,100862.13
2022-10-01T23:26:39.098Z,100856.63
2022-10-01T23:29:34.320Z,100851.72
2022-10-01T23:32:14.139Z,100846.97
2022-10-01T23:34:51.787Z,100850.44
2022-10-01T23:37:50.019Z,100854.47
2022-10-01T23:40:21.297Z,100843.75
2022-10-01T23:42:58.066Z,100847.34
2022-10-01T23:45:31.838Z,100838.97
2022-10-01T23:48:05.422Z,100855.84
2022-10-01T23:50:38.784Z,100865.28
2022-10-01T23:53:15.210Z,100858.59
2022-10-01T23:56:06.864Z,100858.72
2022-10-01T23:58:42.904Z,100867.94
